createdAt,value
2018-06-20T00:00:07.830Z,100114.97
2018-06-20T00:02:36.504Z,100116.80
2018-06-20T00:05:05.132Z,100118.22
2018-06-20T00:07:33.690Z,100108.05
2018-06-20T00:10:02.278Z,100114.78
2018-06-20T00:12:30.838Z,100112.02
2018-06-20T00:14:59.595Z,100106.38
2018-06-20T00:17:28.137Z,100103.38
2018-06-20T00:19:56.722Z,100101.84
2018-06-20T00:22:25.281Z,100104.87
2018-06-20T00:24:53.857Z,100105.09
2018-06-20T00:27:22.452Z,100104.84
2018-06-20T00:29:51.041Z,100104.28
2018-06-20T00:32:20.440Z,100098.44
2018-06-20T00:34:49.040Z,100101.19
2018-06-20T00:37:17.576Z,100100.48
2018-06-20T00:39:46.155Z,100102.57
2018-06-20T00:42:14.696Z,100092.89
2018-06-20T00:44:43.286Z,100096.66
2018-06-20T00:47:11.841Z,100089.38
2018-06-20T00:49:40.425Z,100093.28
2018-06-20T00:52:08.976Z,100089.88
2018-06-20T00:54:37.546Z,100085.00
2018-06-20T00:57:06.111Z,100087.05
2018-06-20T00:59:35.606Z,100084.72
2018-06-20T01:02:04.182Z,100089.73
2018-06-20T01:04:32.780Z,100088.20
2018-06-20T01:07:01.309Z,100087.19
2018-06-20T01:09:29.838Z,100085.12
2018-06-20T01:11:58.566Z,100084.83
2018-06-20T01:14:26.969Z,100080.16
2018-06-20T01:16:55.770Z,100072.50
2018-06-20T01:19:24.290Z,100073.16
2018-06-20T01:21:52.865Z,100076.47
2018-06-20T01:24:21.404Z,100077.08
2018-06-20T01:26:49.968Z,100072.72
2018-06-20T01:29:18.504Z,100070.40
2018-06-20T01:31:47.073Z,100071.11
2018-06-20T01:34:15.624Z,100064.56
2018-06-20T01:36:44.561Z,100069.08
2018-06-20T01:39:13.164Z,100068.45
2018-06-20T01:41:42.133Z,100073.67
2018-06-20T01:44:10.666Z,100066.38
2018-06-20T01:46:39.257Z,100070.34
2018-06-20T01:49:08.252Z,100063.54
2018-06-20T01:51:37.153Z,100065.72
2018-06-20T01:54:06.348Z,100066.38
2018-06-20T01:56:35.780Z,100069.37
2018-06-20T01:59:04.324Z,100068.53
2018-06-20T02:01:32.888Z,100068.09
2018-06-20T02:04:01.456Z,100067.82
2018-06-20T02:06:30.076Z,100062.01
2018-06-20T02:08:59.001Z,100057.73
2018-06-20T02:11:29.157Z,100056.83
2018-06-20T02:13:57.736Z,100054.19
2018-06-20T02:16:26.308Z,100052.62
2018-06-20T02:18:54.917Z,100062.72
2018-06-20T02:21:23.464Z,100053.14
2018-06-20T02:23:51.989Z,100054.88
2018-06-20T02:26:20.571Z,100047.08
2018-06-20T02:28:49.097Z,100038.80
2018-06-20T02:31:17.660Z,100039.91
2018-06-20T02:33:46.185Z,100052.27
2018-06-20T02:36:19.897Z,100042.00
2018-06-20T02:38:48.445Z,100036.95
2018-06-20T02:41:17.015Z,100038.77
2018-06-20T02:43:45.576Z,100037.61
2018-06-20T02:46:14.137Z,100028.77
2018-06-20T02:48:42.666Z,100024.00
2018-06-20T02:51:11.234Z,100029.35
2018-06-20T02:53:39.768Z,100022.51
2018-06-20T02:56:08.347Z,100025.75
2018-06-20T02:58:36.965Z,100031.27
2018-06-20T03:01:05.534Z,100026.45
2018-06-20T03:03:34.133Z,100030.66
2018-06-20T03:06:02.665Z,100025.98
2018-06-20T03:08:31.244Z,100031.24
2018-06-20T03:10:59.776Z,100026.19
2018-06-20T03:13:28.340Z,100024.31
2018-06-20T03:15:56.866Z,100021.25
2018-06-20T03:18:25.482Z,100024.66
2018-06-20T03:20:54.013Z,100021.67
2018-06-20T03:23:22.586Z,100019.61
2018-06-20T03:25:51.126Z,100017.55
2018-06-20T03:28:19.704Z,100019.05
2018-06-20T03:30:48.249Z,100012.84
2018-06-20T03:33:16.809Z,100014.90
2018-06-20T03:35:45.344Z,100012.00
2018-06-20T03:38:13.913Z,100015.18
2018-06-20T03:40:42.466Z,100017.84
2018-06-20T03:43:11.048Z,100021.34
2018-06-20T03:45:39.576Z,100012.56
2018-06-20T03:48:08.135Z,100016.98
2018-06-20T03:50:37.132Z,100017.50
2018-06-20T03:53:05.708Z,100022.40
2018-06-20T03:55:34.249Z,100024.89
2018-06-20T03:58:02.811Z,100015.84
2018-06-20T04:00:31.349Z,100021.26
2018-06-20T04:02:59.936Z,100016.98
2018-06-20T04:05:30.260Z,100016.22
2018-06-20T04:07:59.256Z,100017.06
2018-06-20T04:10:27.853Z,100022.60
2018-06-20T04:12:56.417Z,100017.95
2018-06-20T04:15:24.940Z,100012.56
2018-06-20T04:17:53.508Z,100013.43
2018-06-20T04:20:22.065Z,100014.69
2018-06-20T04:22:50.626Z,100015.33
2018-06-20T04:25:19.165Z,100013.97
2018-06-20T04:27:47.749Z,100006.77
2018-06-20T04:30:16.274Z,100007.23
2018-06-20T04:32:44.835Z,100008.23
2018-06-20T04:35:13.364Z,100003.99
2018-06-20T04:37:41.914Z,100004.69
2018-06-20T04:40:10.448Z,100005.17
2018-06-20T04:42:39.016Z,100004.38
2018-06-20T04:45:07.547Z,100003.64
2018-06-20T04:47:36.116Z,100001.77
2018-06-20T04:50:04.678Z,100006.43
2018-06-20T04:52:33.625Z,100003.40
2018-06-20T04:55:03.593Z,100005.09
2018-06-20T04:57:32.116Z,100004.50
2018-06-20T05:00:02.134Z,100003.27
2018-06-20T05:02:30.772Z,99998.18
2018-06-20T05:04:59.625Z,99996.27
2018-06-20T05:07:28.352Z,100005.09
2018-06-20T05:10:00.088Z,100002.67
2018-06-20T05:12:29.253Z,99999.85
2018-06-20T05:14:58.211Z,99999.44
2018-06-20T05:17:27.158Z,99994.17
2018-06-20T05:19:55.801Z,99996.84
2018-06-20T05:22:24.335Z,99995.89
2018-06-20T05:24:52.904Z,99995.06
2018-06-20T05:27:21.438Z,99994.23
2018-06-20T05:29:50.001Z,99996.66
2018-06-20T05:32:18.520Z,99996.66
2018-06-20T05:34:53.709Z,99993.32
2018-06-20T05:37:22.373Z,99989.11
2018-06-20T05:39:50.977Z,99993.72
2018-06-20T05:42:19.545Z,99991.84
2018-06-20T05:44:48.101Z,99988.45
2018-06-20T05:47:16.692Z,99987.02
2018-06-20T05:49:45.681Z,99987.61
2018-06-20T05:52:14.205Z,99994.51
2018-06-20T05:54:44.722Z,99994.13
2018-06-20T05:57:13.249Z,99987.72
2018-06-20T05:59:41.817Z,99988.66
2018-06-20T06:02:10.389Z,99991.17
2018-06-20T06:04:38.956Z,99998.75
2018-06-20T06:07:08.041Z,99991.50
2018-06-20T06:09:36.601Z,99988.80
2018-06-20T06:12:05.185Z,99992.26
2018-06-20T06:14:33.696Z,99997.41
2018-06-20T06:17:02.406Z,99991.30
2018-06-20T06:19:30.968Z,99993.56
2018-06-20T06:21:59.497Z,99992.06
2018-06-20T06:24:28.927Z,99987.64
2018-06-20T06:27:00.202Z,99992.44
2018-06-20T06:29:28.849Z,99983.81
2018-06-20T06:31:57.585Z,99980.50
2018-06-20T06:34:26.148Z,99982.72
2018-06-20T06:36:54.677Z,99985.83
2018-06-20T06:39:23.233Z,99987.96
2018-06-20T06:41:51.749Z,99975.32
2018-06-20T06:44:20.302Z,99984.27
2018-06-20T06:46:48.834Z,99989.01
2018-06-20T06:49:17.397Z,99987.64
2018-06-20T06:51:45.920Z,99992.38
2018-06-20T06:54:14.433Z,99984.54
2018-06-20T06:56:42.985Z,99980.61
2018-06-20T06:59:11.505Z,99977.14
2018-06-20T07:01:40.065Z,99977.92
2018-06-20T07:04:08.631Z,99979.41
2018-06-20T07:06:38.262Z,99951.23
2018-06-20T07:09:08.161Z,99974.18
2018-06-20T07:11:36.725Z,99977.41
2018-06-20T07:14:05.362Z,99973.88
2018-06-20T07:16:33.925Z,99971.02
2018-06-20T07:19:02.455Z,99965.97
2018-06-20T07:21:31.017Z,99963.71
2018-06-20T07:23:59.613Z,99964.75
2018-06-20T07:26:28.506Z,99969.44
2018-06-20T07:28:57.188Z,99964.64
2018-06-20T07:31:25.773Z,99964.03
2018-06-20T07:33:54.413Z,99960.27
2018-06-20T07:36:23.033Z,99956.74
2018-06-20T07:38:51.557Z,99957.40
2018-06-20T07:41:20.115Z,99958.05
2018-06-20T07:43:48.984Z,99952.99
2018-06-20T07:46:17.533Z,99953.23
2018-06-20T07:48:46.092Z,99954.34
2018-06-20T07:51:14.657Z,99947.31
2018-06-20T07:53:43.177Z,99945.71
2018-06-20T07:56:11.735Z,99940.43
2018-06-20T07:58:45.665Z,99945.00
2018-06-20T08:01:29.633Z,99938.56
2018-06-20T08:04:03.345Z,99938.50
2018-06-20T08:06:37.300Z,99934.06
2018-06-20T08:09:13.163Z,99936.06
2018-06-20T08:11:47.415Z,99934.34
2018-06-20T08:14:21.172Z,99934.70
2018-06-20T08:16:56.657Z,99932.23
2018-06-20T08:19:30.562Z,99934.45
2018-06-20T08:21:59.121Z,99933.84
2018-06-20T08:24:27.637Z,99939.84
2018-06-20T08:26:56.217Z,99935.64
2018-06-20T08:29:24.738Z,99932.29
2018-06-20T08:31:53.367Z,99937.03
2018-06-20T08:34:21.889Z,99930.23
2018-06-20T08:36:52.268Z,99940.08
2018-06-20T08:39:20.828Z,99930.80
2018-06-20T08:41:50.944Z,99938.83
2018-06-20T08:44:22.249Z,99937.28
2018-06-20T08:46:53.270Z,99937.34
2018-06-20T08:49:22.174Z,99931.58
2018-06-20T08:51:53.636Z,99932.25
2018-06-20T08:54:22.181Z,99934.88
2018-06-20T08:56:54.246Z,99927.87
2018-06-20T08:59:26.482Z,99924.17
2018-06-20T09:02:02.161Z,99927.47
2018-06-20T09:04:38.386Z,99926.44
2018-06-20T09:07:15.401Z,99927.31
2018-06-20T09:09:52.429Z,99919.48
2018-06-20T09:12:28.956Z,99922.25
2018-06-20T09:15:02.721Z,99922.00
2018-06-20T09:17:36.540Z,99922.23
2018-06-20T09:20:07.077Z,99922.73
2018-06-20T09:22:35.927Z,99914.67
2018-06-20T09:25:06.673Z,99918.20
2018-06-20T09:27:36.776Z,99919.58
2018-06-20T09:30:07.487Z,99917.10
2018-06-20T09:32:36.057Z,99912.41
2018-06-20T09:35:04.648Z,99911.95
2018-06-20T09:37:33.194Z,99904.44
2018-06-20T09:40:02.084Z,99907.11
2018-06-20T09:42:33.728Z,99900.29
2018-06-20T09:45:02.553Z,99907.12
2018-06-20T09:47:31.105Z,99899.38
2018-06-20T09:50:03.952Z,99900.09
2018-06-20T09:52:32.505Z,99901.80
2018-06-20T09:55:05.237Z,99895.05
2018-06-20T09:57:34.171Z,99898.56
2018-06-20T10:00:07.931Z,99902.44
2018-06-20T10:02:42.485Z,99907.47
2018-06-20T10:05:16.434Z,99901.12
2018-06-20T10:07:50.262Z,99900.95
2018-06-20T10:10:25.177Z,99897.09
2018-06-20T10:13:01.916Z,99896.06
2018-06-20T10:15:31.440Z,99892.34
2018-06-20T10:18:00.149Z,99890.66
2018-06-20T10:20:29.883Z,99889.98
2018-06-20T10:23:00.177Z,99884.31
2018-06-20T10:25:29.810Z,99881.10
2018-06-20T10:28:03.576Z,99880.25
2018-06-20T10:30:32.361Z,99879.94
2018-06-20T10:33:01.032Z,99878.06
2018-06-20T10:35:29.589Z,99882.94
2018-06-20T10:37:58.120Z,99876.00
2018-06-20T10:40:27.650Z,99876.63
2018-06-20T10:42:56.192Z,99873.09
2018-06-20T10:45:30.041Z,99869.23
2018-06-20T10:48:13.113Z,99867.52
2018-06-20T10:50:42.400Z,99867.53
2018-06-20T10:53:12.670Z,99864.55
2018-06-20T10:55:41.641Z,99855.84
2018-06-20T10:58:16.150Z,99863.73
2018-06-20T11:00:50.580Z,99856.84
2018-06-20T11:03:25.306Z,99849.52
2018-06-20T11:05:59.822Z,99849.34
2018-06-20T11:08:33.929Z,99842.10
2018-06-20T11:11:08.121Z,99842.63
2018-06-20T11:13:36.816Z,99844.01
2018-06-20T11:16:05.529Z,99839.38
2018-06-20T11:18:35.884Z,99845.36
2018-06-20T11:21:04.453Z,99831.31
2018-06-20T11:23:32.996Z,99827.57
2018-06-20T11:26:01.561Z,99825.72
2018-06-20T11:28:30.076Z,99823.00
2018-06-20T11:30:58.640Z,99823.05
2018-06-20T11:33:27.208Z,99822.61
2018-06-20T11:35:57.050Z,99821.16
2018-06-20T11:38:30.597Z,99820.65
2018-06-20T11:40:59.319Z,99816.50
2018-06-20T11:43:35.103Z,99815.45
2018-06-20T11:46:13.330Z,99818.82
2018-06-20T11:48:49.648Z,99812.33
2018-06-20T11:51:29.563Z,99808.76
2018-06-20T11:53:58.149Z,99808.22
2018-06-20T11:56:30.773Z,99803.69
2018-06-20T11:59:05.899Z,99806.38
2018-06-20T12:01:41.755Z,99800.05
2018-06-20T12:04:20.151Z,99784.17
2018-06-20T12:06:53.960Z,99794.39
2018-06-20T12:09:31.835Z,99788.48
2018-06-20T12:12:07.743Z,99784.95
2018-06-20T12:14:51.461Z,99782.00
2018-06-20T12:17:37.808Z,99778.95
2018-06-20T12:20:18.055Z,99787.91
2018-06-20T12:22:55.828Z,99776.75
2018-06-20T12:25:32.987Z,99773.08
2018-06-20T12:28:08.255Z,99766.98
2018-06-20T12:30:42.092Z,99763.80
2018-06-20T12:33:19.087Z,99763.77
2018-06-20T12:35:53.801Z,99756.17
2018-06-20T12:38:28.854Z,99757.21
2018-06-20T12:41:05.608Z,99753.73
2018-06-20T12:43:40.019Z,99759.72
2018-06-20T12:46:14.905Z,99749.14
2018-06-20T12:48:43.448Z,99749.31
2018-06-20T12:51:12.013Z,99741.70
2018-06-20T12:53:40.538Z,99745.74
2018-06-20T12:56:09.118Z,99736.63
2018-06-20T12:58:37.645Z,99736.35
2018-06-20T13:01:06.176Z,99737.11
2018-06-20T13:03:34.768Z,99733.55
2018-06-20T13:06:03.305Z,99733.63
2018-06-20T13:08:32.591Z,99739.75
2018-06-20T13:11:08.078Z,99737.27
2018-06-20T13:13:37.250Z,99735.27
2018-06-20T13:16:05.935Z,99732.06
2018-06-20T13:18:35.431Z,99730.05
2018-06-20T13:21:04.225Z,99733.66
2018-06-20T13:23:32.977Z,99721.28
2018-06-20T13:26:01.504Z,99725.56
2018-06-20T13:28:30.912Z,99727.25
2018-06-20T13:31:04.593Z,99721.85
2018-06-20T13:34:43.886Z,99719.10
2018-06-20T13:37:19.171Z,99709.81
2018-06-20T13:39:53.915Z,99707.61
2018-06-20T13:43:32.504Z,99705.46
2018-06-20T13:46:06.959Z,99697.11
2018-06-20T13:48:36.795Z,99697.08
2018-06-20T13:51:05.373Z,99694.58
2018-06-20T13:53:33.933Z,99690.00
2018-06-20T13:56:02.519Z,99700.47
2018-06-20T13:58:31.053Z,99698.78
2018-06-20T14:00:59.581Z,99690.63
2018-06-20T14:03:28.250Z,99696.25
2018-06-20T14:05:56.773Z,99694.59
2018-06-20T14:08:25.335Z,99685.05
2018-06-20T14:10:53.885Z,99681.02
2018-06-20T14:13:22.440Z,99683.91
2018-06-20T14:15:51.177Z,99678.61
2018-06-20T14:18:19.901Z,99686.94
2018-06-20T14:20:53.788Z,99683.97
2018-06-20T14:23:22.573Z,99681.72
2018-06-20T14:25:51.324Z,99678.24
2018-06-20T14:28:20.092Z,99680.13
2018-06-20T14:30:53.997Z,99674.34
2018-06-20T14:33:28.143Z,99678.53
2018-06-20T14:36:02.002Z,99670.56
2018-06-20T14:38:35.953Z,99676.23
2018-06-20T14:41:21.240Z,99665.09
2018-06-20T14:43:55.800Z,99668.81
2018-06-20T14:46:25.730Z,99664.89
2018-06-20T14:48:54.316Z,99667.34
2018-06-20T14:51:23.081Z,99664.04
2018-06-20T14:53:51.651Z,99667.85
2018-06-20T14:56:20.173Z,99668.48
2018-06-20T14:58:48.701Z,99656.11
2018-06-20T15:01:17.250Z,99659.53
2018-06-20T15:03:45.800Z,99655.87
2018-06-20T15:06:14.461Z,99656.03
2018-06-20T15:08:43.673Z,99651.25
2018-06-20T15:11:12.485Z,99655.33
2018-06-20T15:13:41.012Z,99649.19
2018-06-20T15:16:15.112Z,99645.75
2018-06-20T15:18:43.661Z,99643.16
2018-06-20T15:21:12.220Z,99638.05
2018-06-20T15:23:40.744Z,99642.03
2018-06-20T15:26:14.597Z,99637.56
2018-06-20T15:28:49.031Z,99639.44
2018-06-20T15:31:22.753Z,99628.38
2018-06-20T15:35:00.501Z,99622.27
2018-06-20T15:37:34.351Z,99622.27
2018-06-20T15:40:03.296Z,99624.38
2018-06-20T15:42:31.819Z,99612.58
2018-06-20T15:45:00.391Z,99612.91
2018-06-20T15:47:28.913Z,99615.66
2018-06-20T15:49:57.475Z,99608.84
2018-06-20T15:52:26.002Z,99609.48
2018-06-20T15:54:54.790Z,99605.17
2018-06-20T15:57:23.334Z,99599.89
2018-06-20T15:59:51.860Z,99604.07
2018-06-20T16:02:20.453Z,99600.91
2018-06-20T16:04:48.976Z,99606.09
2018-06-20T16:07:17.531Z,99599.66
2018-06-20T16:09:51.358Z,99604.63
2018-06-20T16:12:19.880Z,99592.33
2018-06-20T16:14:48.414Z,99593.34
2018-06-20T16:17:17.016Z,99591.97
2018-06-20T16:19:50.867Z,99591.81
2018-06-20T16:22:24.603Z,99584.09
2018-06-20T16:24:58.332Z,99579.58
2018-06-20T16:27:32.011Z,99586.54
2018-06-20T16:30:05.585Z,99581.64
2018-06-20T16:32:34.140Z,99582.19
2018-06-20T16:35:03.121Z,99579.88
2018-06-20T16:37:31.835Z,99592.27
2018-06-20T16:40:00.214Z,99578.23
2018-06-20T16:42:28.770Z,99583.76
2018-06-20T16:44:57.294Z,99585.19
2018-06-20T16:47:25.841Z,99597.33
2018-06-20T16:49:54.373Z,99603.29
2018-06-20T16:52:23.203Z,99599.52
2018-06-20T16:54:51.721Z,99597.98
2018-06-20T16:57:20.276Z,99594.47
2018-06-20T16:59:48.789Z,99593.30
2018-06-20T17:02:22.709Z,99591.47
2018-06-20T17:04:51.445Z,99588.89
2018-06-20T17:07:20.005Z,99581.90
2018-06-20T17:09:49.220Z,99590.13
2018-06-20T17:12:23.019Z,99586.35
2018-06-20T17:14:56.861Z,99588.13
2018-06-20T17:17:30.809Z,99578.75
2018-06-20T17:20:04.587Z,99580.61
2018-06-20T17:22:38.421Z,99585.09
2018-06-20T17:25:12.177Z,99580.16
2018-06-20T17:27:40.758Z,99579.57
2018-06-20T17:30:09.328Z,99579.05
2018-06-20T17:32:37.881Z,99578.55
2018-06-20T17:35:06.437Z,99566.37
2018-06-20T17:37:34.988Z,99569.27
2018-06-20T17:40:03.613Z,99579.08
2018-06-20T17:42:32.180Z,99571.34
2018-06-20T17:45:00.711Z,99575.69
2018-06-20T17:47:29.278Z,99574.34
2018-06-20T17:49:58.073Z,99565.04
2018-06-20T17:52:26.687Z,99563.94
2018-06-20T17:54:55.225Z,99561.74
2018-06-20T17:57:23.784Z,99552.54
2018-06-20T17:59:52.345Z,99551.54
2018-06-20T18:02:20.908Z,99551.55
2018-06-20T18:04:54.745Z,99545.72
2018-06-20T18:07:28.355Z,99542.23
2018-06-20T18:10:01.984Z,99539.00
2018-06-20T18:12:38.549Z,99538.70
2018-06-20T18:15:12.743Z,99536.19
2018-06-20T18:17:41.736Z,99535.50
2018-06-20T18:20:10.310Z,99529.13
2018-06-20T18:22:38.917Z,99530.97
2018-06-20T18:25:07.484Z,99523.54
2018-06-20T18:27:36.024Z,99520.30
2018-06-20T18:30:04.745Z,99519.95
2018-06-20T18:32:33.330Z,99513.80
2018-06-20T18:35:02.089Z,99521.95
2018-06-20T18:37:30.648Z,99519.98
2018-06-20T18:40:06.009Z,99516.06
2018-06-20T18:42:36.213Z,99520.44
2018-06-20T18:45:04.940Z,99518.30
2018-06-20T18:47:38.656Z,99515.89
2018-06-20T18:50:07.732Z,99516.40
2018-06-20T18:52:36.285Z,99516.48
2018-06-20T18:55:04.912Z,99517.09
2018-06-20T18:57:38.693Z,99512.28
2018-06-20T19:00:13.372Z,99509.16
2018-06-20T19:02:47.238Z,99510.98
2018-06-20T19:05:20.957Z,99509.48
2018-06-20T19:07:54.851Z,99509.88
2018-06-20T19:10:23.412Z,99508.96
2018-06-20T19:12:51.928Z,99509.81
2018-06-20T19:15:20.473Z,99507.44
2018-06-20T19:17:48.993Z,99507.16
2018-06-20T19:20:17.541Z,99507.02
2018-06-20T19:22:46.061Z,99515.09
2018-06-20T19:25:14.612Z,99505.92
2018-06-20T19:27:43.180Z,99507.72
2018-06-20T19:30:11.738Z,99508.91
2018-06-20T19:32:40.247Z,99517.25
2018-06-20T19:35:08.816Z,99513.40
2018-06-20T19:37:37.360Z,99515.30
2018-06-20T19:40:05.881Z,99522.41
2018-06-20T19:42:34.458Z,99521.45
2018-06-20T19:45:03.058Z,99515.47
2018-06-20T19:47:31.577Z,99517.19
2018-06-20T19:50:00.365Z,99518.00
2018-06-20T19:52:28.914Z,99520.91
2018-06-20T19:54:57.429Z,99524.58
2018-06-20T19:57:25.976Z,99520.09
2018-06-20T19:59:54.489Z,99528.31
2018-06-20T20:02:23.100Z,99526.55
2018-06-20T20:04:51.624Z,99519.85
2018-06-20T20:07:20.178Z,99519.98
2018-06-20T20:09:48.711Z,99517.02
2018-06-20T20:12:17.715Z,99525.23
2018-06-20T20:14:46.234Z,99517.18
2018-06-20T20:17:15.713Z,99526.27
2018-06-20T20:19:44.234Z,99530.28
2018-06-20T20:22:12.792Z,99532.30
2018-06-20T20:24:41.312Z,99531.61
2018-06-20T20:27:09.877Z,99533.63
2018-06-20T20:29:38.397Z,99537.63
2018-06-20T20:32:06.950Z,99537.63
2018-06-20T20:34:35.481Z,99539.25
2018-06-20T20:37:04.058Z,99542.06
2018-06-20T20:39:32.565Z,99543.73
2018-06-20T20:42:01.120Z,99543.17
2018-06-20T20:44:29.752Z,99547.25
2018-06-20T20:46:58.564Z,99548.57
2018-06-20T20:49:27.345Z,99551.67
2018-06-20T20:51:56.117Z,99559.86
2018-06-20T20:54:24.678Z,99560.79
2018-06-20T20:56:53.262Z,99554.88
2018-06-20T20:59:21.836Z,99564.33
2018-06-20T21:01:50.377Z,99548.22
2018-06-20T21:04:18.974Z,99549.59
2018-06-20T21:06:47.676Z,99556.79
2018-06-20T21:09:16.224Z,99554.42
2018-06-20T21:11:49.183Z,99553.23
2018-06-20T21:14:17.981Z,99549.84
2018-06-20T21:16:53.576Z,99554.53
2018-06-20T21:19:26.737Z,99555.19
2018-06-20T21:22:01.668Z,99555.48
2018-06-20T21:24:34.300Z,99559.48
2018-06-20T21:27:05.722Z,99553.29
2018-06-20T21:29:36.244Z,99555.59
2018-06-20T21:32:05.226Z,99559.02
2018-06-20T21:34:36.669Z,99560.52
2018-06-20T21:37:09.826Z,99554.23
2018-06-20T21:39:42.348Z,99553.55
2018-06-20T21:42:12.906Z,99554.41
2018-06-20T21:44:44.130Z,99549.59
2018-06-20T21:47:14.543Z,99547.46
2018-06-20T21:49:45.609Z,99543.66
2018-06-20T21:52:16.094Z,99542.91
2018-06-20T21:54:48.373Z,99546.53
2018-06-20T21:57:20.594Z,99539.72
2018-06-20T21:59:50.586Z,99541.73
2018-06-20T22:02:21.633Z,99539.39
2018-06-20T22:04:55.325Z,99536.10
2018-06-20T22:07:25.903Z,99547.73
2018-06-20T22:10:00.860Z,99537.70
2018-06-20T22:12:31.377Z,99533.16
2018-06-20T22:15:01.619Z,99533.84
2018-06-20T22:17:30.137Z,99536.41
2018-06-20T22:20:00.390Z,99528.63
2018-06-20T22:22:32.400Z,99531.59
2018-06-20T22:25:03.157Z,99531.23
2018-06-20T22:27:35.341Z,99525.91
2018-06-20T22:30:09.692Z,99525.62
2018-06-20T22:32:41.339Z,99527.98
2018-06-20T22:35:10.013Z,99517.83
2018-06-20T22:37:38.550Z,99517.38
2018-06-20T22:40:07.159Z,99518.20
2018-06-20T22:42:40.578Z,99515.44
2018-06-20T22:45:13.304Z,99520.08
2018-06-20T22:47:42.695Z,99517.48
2018-06-20T22:50:13.301Z,99514.28
2018-06-20T22:52:44.509Z,99510.72
2018-06-20T22:55:15.993Z,99509.09
2018-06-20T22:57:45.278Z,99512.27
2018-06-20T23:00:14.718Z,99515.33
2018-06-20T23:02:43.265Z,99513.52
2018-06-20T23:05:11.845Z,99506.98
2018-06-20T23:07:40.364Z,99507.13
2018-06-20T23:10:08.889Z,99504.66
2018-06-20T23:12:37.449Z,99500.58
2018-06-20T23:15:06.258Z,99500.35
2018-06-20T23:17:34.805Z,99507.22
2018-06-20T23:20:03.333Z,99499.41
2018-06-20T23:22:31.889Z,99498.60
2018-06-20T23:25:00.401Z,99494.31
2018-06-20T23:27:28.973Z,99500.98
2018-06-20T23:29:57.557Z,99498.55
2018-06-20T23:32:26.110Z,99498.73
2018-06-20T23:34:54.619Z,99497.50
2018-06-20T23:37:23.165Z,99495.82
2018-06-20T23:39:51.681Z,99494.36
2018-06-20T23:42:20.241Z,99491.28
2018-06-20T23:44:48.761Z,99495.91
2018-06-20T23:47:18.297Z,99494.99
2018-06-20T23:49:46.817Z,99493.02
2018-06-20T23:52:15.600Z,99492.69
2018-06-20T23:54:44.133Z,99498.52
2018-06-20T23:57:12.708Z,99502.41
2018-06-20T23:59:41.223Z,99496.54
